Time;durP1;ratioP1;P1;durP2;ratioP2;P2;SDS_P1;SDS_P2;PMS_P1;PMS_P2;Temp;Humidity;BMP_temperature;BMP_pressure;BME280_temperature;BME280_humidity;BME280_pressure;Samples;Min_cycle;Max_cycle;Signal;HPM_P1;HPM_P2
2022/07/22 00:01:02;;;;;;;5.15;3.75;;;;;;;24.11;43.80;64493.69;5032935;28;20202;-77
2022/07/22 00:03:29;;;;;;;5.78;3.95;;;;;;;24.10;43.94;64498.34;5024019;28;20225;-77
2022/07/22 00:05:56;;;;;;;4.18;3.78;;;;;;;24.07;43.63;64492.09;5023899;28;20244;-77
2022/07/22 00:08:22;;;;;;;6.13;4.25;;;;;;;24.12;43.48;64497.31;5023708;28;20466;-78
2022/07/22 00:10:51;;;;;;;4.85;4.47;;;;;;;24.19;43.52;64510.38;5033664;28;20198;-77
2022/07/22 00:13:18;;;;;;;5.93;3.97;;;;;;;24.10;43.43;64498.34;5044029;28;20248;-76
2022/07/22 00:15:44;;;;;;;4.28;3.90;;;;;;;24.10;44.11;64495.22;5045193;28;20197;-77
2022/07/22 00:18:11;;;;;;;4.10;3.65;;;;;;;24.00;44.90;64482.69;5041721;28;20224;-77
2022/07/22 00:20:38;;;;;;;5.22;3.95;;;;;;;23.92;45.53;64482.09;5041884;28;20406;-78
2022/07/22 00:23:05;;;;;;;4.65;4.25;;;;;;;23.90;45.61;64480.53;5042172;28;20388;-77
2022/07/22 00:25:32;;;;;;;4.22;3.85;;;;;;;23.78;45.91;64464.84;5042751;28;20193;-76
2022/07/22 00:28:01;;;;;;;4.82;4.25;;;;;;;23.58;46.35;64447.03;5038591;28;20221;-78
2022/07/22 00:30:28;;;;;;;6.25;3.30;;;;;;;23.52;46.94;64435.53;5032976;28;20197;-77
2022/07/22 00:32:55;;;;;;;9.05;4.22;;;;;;;23.46;47.29;64426.69;5041747;28;20221;-77
2022/07/22 00:35:22;;;;;;;6.90;4.15;;;;;;;23.33;47.41;64418.28;5042973;28;20202;-77
2022/07/22 00:37:49;;;;;;;8.10;3.92;;;;;;;23.23;47.75;64407.78;5038855;28;20225;-78
2022/07/22 00:40:16;;;;;;;9.00;3.95;;;;;;;23.17;48.26;64401.00;5042589;28;20381;-77
2022/07/22 00:42:42;;;;;;;5.55;3.50;;;;;;;;;;5042592;28;20427;-76
2022/07/22 00:45:11;;;;;;;5.70;4.60;;;;;;;22.90;49.63;64370.69;5039569;28;20220;-78
2022/07/22 00:47:38;;;;;;;4.32;4.03;;;;;;;22.86;49.21;64372.22;5042938;28;20275;-76
2022/07/22 00:50:07;;;;;;;7.40;4.13;;;;;;;22.74;49.62;64354.47;5028790;28;20209;-77
2022/07/22 00:52:34;;;;;;;5.38;3.88;;;;;;;22.64;50.23;64349.22;5043326;28;20591;-76
2022/07/22 00:55:03;;;;;;;6.07;3.90;;;;;;;22.47;50.42;64328.28;5045210;28;20209;-77
2022/07/22 00:57:30;;;;;;;7.85;4.28;;;;;;;22.35;50.97;64318.34;5045118;28;20267;-77
2022/07/22 00:59:57;;;;;;;5.35;4.85;;;;;;;22.27;51.56;64304.78;5045842;28;20452;-77
2022/07/22 01:02:25;;;;;;;7.68;4.57;;;;;;;22.20;51.47;64300.06;5039472;28;20539;-77
2022/07/22 01:04:52;;;;;;;4.22;3.78;;;;;;;22.16;52.16;64295.91;5043244;28;20197;-77
2022/07/22 01:07:20;;;;;;;4.47;4.07;;;;;;;22.14;51.25;64291.72;5045598;28;20422;-77
2022/07/22 01:09:47;;;;;;;7.32;4.38;;;;;;;22.05;51.26;64279.22;5027407;28;20354;-77
2022/07/22 01:12:14;;;;;;;4.43;4.03;;;;;;;22.00;50.75;64276.59;5034841;28;20398;-77
2022/07/22 01:14:41;;;;;;;6.97;4.00;;;;;;;21.92;51.65;64268.22;5045817;28;20236;-79
2022/07/22 01:17:08;;;;;;;4.53;3.92;;;;;;;21.86;51.59;64259.88;5044611;28;20418;-77
2022/07/22 01:19:37;;;;;;;5.20;4.15;;;;;;;21.82;52.39;64260.88;5040569;28;20439;-76
2022/07/22 01:22:06;;;;;;;4.68;4.18;;;;;;;21.79;52.57;64252.56;5042559;28;20217;-76
2022/07/22 01:24:33;;;;;;;6.00;4.25;;;;;;;21.79;53.00;64258.25;5045404;28;20252;-76
2022/07/22 01:27:00;;;;;;;6.05;4.18;;;;;;;21.75;54.19;64251.50;5041504;28;20272;-77
2022/07/22 01:29:27;;;;;;;4.70;4.15;;;;;;;21.68;54.55;64243.66;5039282;28;20197;-77
2022/07/22 01:31:54;;;;;;;5.50;4.53;;;;;;;21.65;55.19;64237.91;5026378;28;20226;-77
2022/07/22 01:34:22;;;;;;;4.88;3.90;;;;;;;21.54;54.96;64226.94;5040875;28;20213;-78
2022/07/22 01:36:48;;;;;;;4.82;4.38;;;;;;;21.46;54.67;64223.25;5045170;28;20375;-76
2022/07/22 01:39:17;;;;;;;10.43;5.40;;;;;;;21.43;54.03;64218.03;5039348;28;20248;-77
2022/07/22 01:41:44;;;;;;;6.18;4.28;;;;;;;21.44;54.40;64219.09;5024634;28;20222;-77
2022/07/22 01:44:11;;;;;;;6.30;3.92;;;;;;;21.45;53.12;64219.63;5027113;28;20201;-77
2022/07/22 01:46:39;;;;;;;5.70;4.70;;;;;;;21.43;54.19;64220.13;5045081;28;20246;-77
2022/07/22 01:49:05;;;;;;;5.20;3.85;;;;;;;21.46;53.18;64221.19;5032879;28;20227;-76
2022/07/22 01:51:32;;;;;;;4.57;4.22;;;;;;;21.40;53.33;64212.31;5040691;28;20328;-77
2022/07/22 01:53:59;;;;;;;6.38;3.78;;;;;;;21.40;53.16;64214.91;5044974;28;20520;-77
2022/07/22 01:56:27;;;;;;;4.20;3.63;;;;;;;21.43;53.77;64214.94;5043395;28;20204;-77
2022/07/22 01:58:54;;;;;;;5.18;4.60;;;;;;;21.37;54.08;64211.78;5041175;28;20298;-78
2022/07/22 02:01:22;;;;;;;4.57;4.10;;;;;;;21.34;54.78;64211.25;5044199;28;20205;-77
2022/07/22 02:03:49;;;;;;;8.88;4.07;;;;;;;21.36;55.02;64210.22;5044741;28;20244;-77
2022/07/22 02:06:15;;;;;;;6.68;4.40;;;;;;;21.29;55.25;64205.50;5040609;28;20416;-77
2022/07/22 02:08:42;;;;;;;5.20;4.25;;;;;;;21.22;56.41;64203.38;5024229;28;20265;-76
2022/07/22 02:11:09;;;;;;;6.22;4.13;;;;;;;21.14;57.34;64189.84;5026515;28;20252;-77
2022/07/22 02:13:37;;;;;;;4.85;4.13;;;;;;;21.07;56.62;64180.44;5044567;28;20281;-77
2022/07/22 02:16:05;;;;;;;5.07;4.60;;;;;;;21.07;56.20;64183.03;5034132;28;20208;-77
2022/07/22 02:18:32;;;;;;;5.93;4.72;;;;;;;20.97;56.41;64169.47;5026078;28;20224;-77
2022/07/22 02:20:59;;;;;;;4.72;4.28;;;;;;;20.94;56.72;64166.84;5024430;28;20217;-77
2022/07/22 02:23:26;;;;;;;9.38;4.32;;;;;;;20.92;56.81;64166.84;5043079;28;20224;-77
2022/07/22 02:25:52;;;;;;;5.00;4.40;;;;;;;20.96;56.57;64168.44;5041436;28;20514;-76
2022/07/22 02:28:19;;;;;;;3.75;3.50;;;;;;;20.98;57.05;64171.06;5046553;28;20237;-77
2022/07/22 02:30:48;;;;;;;4.40;4.00;;;;;;;21.00;57.92;64173.13;5044078;28;20194;-77
2022/07/22 02:33:15;;;;;;;8.25;4.28;;;;;;;20.95;57.99;64169.97;5042451;28;20280;-77
2022/07/22 02:35:42;;;;;;;4.88;4.45;;;;;;;20.90;58.13;64162.69;5036853;28;20217;-77
2022/07/22 02:38:09;;;;;;;4.13;3.88;;;;;;;20.92;58.20;64166.84;5042532;28;20229;-77
2022/07/22 02:40:36;;;;;;;6.20;4.63;;;;;;;20.85;58.60;64156.94;5043563;28;20225;-77
2022/07/22 02:43:05;;;;;;;4.53;4.13;;;;;;;20.75;59.34;64149.09;5036147;28;21027;-76
2022/07/22 02:45:32;;;;;;;5.93;4.45;;;;;;;20.73;59.19;64144.94;5026485;28;20510;-77
2022/07/22 02:48:01;;;;;;;6.30;5.03;;;;;;;20.63;59.62;64137.63;5032657;28;20221;-76
2022/07/22 02:50:28;;;;;;;8.80;4.50;;;;;;;20.65;59.61;64136.59;5024383;28;20273;-78
2022/07/22 02:52:55;;;;;;;6.53;4.68;;;;;;;20.61;59.44;64135.53;5027505;28;20234;-78
2022/07/22 02:55:21;;;;;;;4.80;4.40;;;;;;;20.74;59.43;64150.63;5024190;28;20406;-76
2022/07/22 02:57:48;;;;;;;6.20;4.82;;;;;;;20.69;59.39;64141.28;5024375;28;20241;-77
2022/07/22 03:00:15;;;;;;;5.82;4.72;;;;;;;20.61;59.62;64127.75;5038687;28;20397;-77
2022/07/22 03:02:43;;;;;;;4.90;4.38;;;;;;;20.58;60.04;64127.22;5026117;28;20218;-77
2022/07/22 03:05:12;;;;;;;5.28;4.10;;;;;;;20.52;59.30;64126.13;5033162;28;20260;-77
2022/07/22 03:07:39;;;;;;;4.97;4.57;;;;;;;20.54;60.08;64125.63;5023803;28;20560;-77
2022/07/22 03:10:06;;;;;;;5.32;4.47;;;;;;;20.51;59.59;64124.56;5027218;28;20395;-76
2022/07/22 03:12:33;;;;;;;4.65;4.20;;;;;;;20.50;59.82;64124.03;5022932;28;20557;-76
2022/07/22 03:15:00;;;;;;;4.55;4.15;;;;;;;20.52;59.11;64120.41;5035954;28;20206;-77
2022/07/22 03:17:27;;;;;;;6.53;4.55;;;;;;;20.58;58.98;64127.22;5023780;28;20540;-77
2022/07/22 03:19:54;;;;;;;6.53;4.10;;;;;;;20.64;59.86;64132.94;5027571;28;20269;-76
2022/07/22 03:22:22;;;;;;;6.20;4.40;;;;;;;20.65;59.80;64136.59;5026297;28;20225;-77
2022/07/22 03:24:49;;;;;;;4.82;4.03;;;;;;;20.66;59.26;64138.16;5044116;28;20194;-76
2022/07/22 03:27:16;;;;;;;5.60;3.92;;;;;;;20.48;59.54;64118.84;5043548;28;20305;-78
2022/07/22 03:29:43;;;;;;;5.30;4.18;;;;;;;20.68;59.78;64142.31;5028447;28;20213;-77
2022/07/22 03:32:10;;;;;;;9.85;4.85;;;;;;;20.70;59.27;64146.97;5024331;28;20222;-77
2022/07/22 03:34:36;;;;;;;8.80;4.82;;;;;;;20.75;60.39;64152.19;5022826;28;20511;-77
2022/07/22 03:37:03;;;;;;;4.78;4.38;;;;;;;20.77;60.63;64151.69;5026402;28;20410;-76
2022/07/22 03:39:31;;;;;;;11.55;4.85;;;;;;;20.81;59.96;64148.13;5040718;28;20193;-76
2022/07/22 03:41:58;;;;;;;7.35;4.82;;;;;;;20.84;58.99;64156.41;5042191;28;20229;-77
2022/07/22 03:44:25;;;;;;;6.78;4.82;;;;;;;20.91;59.03;64163.22;5042775;28;20566;-77
2022/07/22 03:46:52;;;;;;;5.97;4.75;;;;;;;21.00;58.93;64172.63;5033712;28;20473;-77
2022/07/22 03:49:19;;;;;;;5.90;4.32;;;;;;;21.04;58.84;64181.97;5036576;28;20276;-77
2022/07/22 03:51:46;;;;;;;5.05;4.53;;;;;;;21.12;59.29;64188.25;5042640;28;20267;-77
2022/07/22 03:54:13;;;;;;;5.78;4.43;;;;;;;21.16;59.78;64189.31;5039649;28;20201;-77
2022/07/22 03:56:41;;;;;;;5.75;4.57;;;;;;;21.20;60.29;64193.50;5040331;28;20274;-77
2022/07/22 03:59:08;;;;;;;9.15;4.43;;;;;;;21.31;60.66;64202.41;5034661;28;20404;-76
2022/07/22 04:01:35;;;;;;;4.88;4.47;;;;;;;21.34;60.34;64210.72;5042284;28;20377;-76
2022/07/22 04:04:02;;;;;;;5.15;4.70;;;;;;;21.39;59.89;64213.34;5037653;28;20201;-76
2022/07/22 04:06:29;;;;;;;8.32;4.57;;;;;;;21.47;59.91;64224.81;5037600;28;20264;-77
2022/07/22 04:08:55;;;;;;;7.47;4.55;;;;;;;21.54;59.44;64229.00;5022900;28;20202;-77
2022/07/22 04:11:22;;;;;;;8.52;4.95;;;;;;;21.65;59.02;64243.09;5022425;28;20269;-76
2022/07/22 04:13:51;;;;;;;4.47;4.10;;;;;;;21.72;59.34;64248.34;5027028;28;20398;-78
2022/07/22 04:16:18;;;;;;;8.25;4.65;;;;;;;21.83;57.84;64261.94;5039363;28;20208;-77
2022/07/22 04:18:44;;;;;;;5.45;4.47;;;;;;;21.85;57.49;64258.84;5042626;28;20554;-77
2022/07/22 04:21:11;;;;;;;6.13;4.70;;;;;;;21.91;57.62;64267.69;5042918;28;20198;-77
2022/07/22 04:23:39;;;;;;;6.57;4.93;;;;;;;21.95;58.14;64269.28;5030629;28;20225;-77
2022/07/22 04:26:06;;;;;;;6.32;5.07;;;;;;;22.02;60.35;64281.78;5044914;28;20224;-75
2022/07/22 04:28:34;;;;;;;7.40;4.63;;;;;;;21.87;60.12;64266.09;5045613;28;20243;-76
2022/07/22 04:31:02;;;;;;;10.07;4.80;;;;;;;21.61;60.36;64236.31;5044176;28;20306;-77
2022/07/22 04:33:29;;;;;;;12.07;5.43;;;;;;;21.56;62.13;64239.41;5029823;28;20237;-77
2022/07/22 04:35:56;;;;;;;7.47;5.55;;;;;;;21.60;63.02;64230.09;5031859;28;20248;-76
2022/07/22 04:38:23;;;;;;;6.85;5.05;;;;;;;21.49;63.12;64221.72;5045297;28;20229;-76
2022/07/22 04:40:50;;;;;;;8.13;5.80;;;;;;;21.50;64.29;64227.94;5041892;28;20209;-76
2022/07/22 04:43:17;;;;;;;8.48;5.50;;;;;;;21.54;65.39;64237.31;5045584;28;20286;-77
2022/07/22 04:45:44;;;;;;;5.80;5.20;;;;;;;21.74;65.08;64252.50;5045103;28;20213;-77
2022/07/22 04:48:12;;;;;;;9.98;6.00;;;;;;;21.85;65.99;64266.09;5037641;28;20526;-77
2022/07/22 04:50:39;;;;;;;8.70;6.25;;;;;;;21.83;65.21;64256.75;5029508;28;20245;-77
2022/07/22 04:53:06;;;;;;;6.95;6.22;;;;;;;21.72;67.47;64247.81;5025409;28;20217;-76
2022/07/22 04:55:33;;;;;;;14.80;7.25;;;;;;;21.69;65.09;64247.28;5025790;28;20206;-77
2022/07/22 04:58:00;;;;;;;7.40;6.50;;;;;;;21.77;63.94;64256.19;5026137;28;20229;-77
2022/07/22 05:00:27;;;;;;;7.45;5.70;;;;;;;21.75;63.89;64251.50;5042458;28;20222;-77
2022/07/22 05:02:54;;;;;;;9.93;5.70;;;;;;;21.95;64.03;64271.34;5046891;28;20245;-77
2022/07/22 05:05:23;;;;;;;13.65;7.00;;;;;;;21.77;64.87;64258.25;5045772;28;20197;-77
2022/07/22 05:07:50;;;;;;;6.70;6.00;;;;;;;21.71;66.47;64249.91;5037561;28;20226;-77
2022/07/22 05:10:17;;;;;;;11.90;6.88;;;;;;;21.97;65.74;64271.38;5045928;28;20235;-77
2022/07/22 05:12:44;;;;;;;11.75;6.55;;;;;;;21.98;64.78;64271.91;5043130;28;20225;-77
2022/07/22 05:15:11;;;;;;;14.25;6.68;;;;;;;22.12;64.73;64291.72;5045512;28;20198;-77
2022/07/22 05:17:38;;;;;;;17.15;6.38;;;;;;;22.05;64.23;64284.94;5045033;28;20221;-76
2022/07/22 05:20:06;;;;;;;8.77;6.13;;;;;;;22.07;64.37;64281.81;5045444;28;20198;-77
2022/07/22 05:22:34;;;;;;;11.98;6.50;;;;;;;22.04;63.82;64283.88;5039935;28;20526;-77
2022/07/22 05:25:01;;;;;;;9.52;6.30;;;;;;;22.13;62.64;64284.97;5045168;28;20201;-76
2022/07/22 05:27:28;;;;;;;6.82;6.07;;;;;;;22.17;63.08;64289.69;5044351;28;20232;-77
2022/07/22 05:29:55;;;;;;;16.75;6.25;;;;;;;22.28;63.35;64303.25;5045303;28;20307;-76
2022/07/22 05:32:21;;;;;;;9.57;6.68;;;;;;;22.28;63.24;64308.97;5039938;28;20221;-76
2022/07/22 05:34:48;;;;;;;11.23;7.57;;;;;;;22.42;62.05;64318.41;5045363;28;20208;-76
2022/07/22 05:37:16;;;;;;;10.30;7.05;;;;;;;22.65;61.79;64347.66;5044161;28;20232;-77
2022/07/22 05:39:45;;;;;;;11.23;6.90;;;;;;;22.73;63.14;64348.25;5040927;28;20209;-77
2022/07/22 05:42:12;;;;;;;13.10;7.82;;;;;;;22.68;62.47;64348.19;5030591;28;20248;-76
2022/07/22 05:44:39;;;;;;;15.85;8.07;;;;;;;22.78;61.11;64355.53;5025323;28;20194;-76
2022/07/22 05:47:06;;;;;;;8.75;6.95;;;;;;;22.79;62.10;64359.19;5038395;28;20497;-77
2022/07/22 05:49:33;;;;;;;11.95;7.15;;;;;;;23.05;61.58;64388.44;5042015;28;20201;-77
2022/07/22 05:52:00;;;;;;;11.15;7.68;;;;;;;23.18;59.49;64399.44;5044388;28;20231;-76
2022/07/22 05:54:27;;;;;;;10.75;7.07;;;;;;;23.14;60.30;64395.78;5045018;28;20198;-77
2022/07/22 05:56:56;;;;;;;19.90;7.38;;;;;;;23.18;59.91;64399.44;5044353;28;20214;-77
2022/07/22 05:59:23;;;;;;;9.00;7.97;;;;;;;23.24;60.38;64403.66;5030398;28;20248;-77
2022/07/22 06:01:50;;;;;;;12.35;6.82;;;;;;;23.55;59.04;64436.09;5025924;28;20221;-76
2022/07/22 06:04:17;;;;;;;12.13;6.55;;;;;;;23.74;58.58;64461.19;5024864;28;20202;-77
2022/07/22 06:06:44;;;;;;;13.77;6.57;;;;;;;23.97;58.93;64482.66;5026353;28;20233;-76
2022/07/22 06:09:11;;;;;;;7.43;6.47;;;;;;;24.01;57.84;64488.94;5044252;28;20235;-77
2022/07/22 06:11:37;;;;;;;15.18;7.13;;;;;;;24.29;56.79;64512.50;5043741;28;20354;-77
2022/07/22 06:14:06;;;;;;;9.00;6.85;;;;;;;24.37;57.41;64520.88;5044927;28;20197;-77
2022/07/22 06:16:34;;;;;;;14.20;7.35;;;;;;;24.39;55.63;64525.56;5042616;28;20194;-77
2022/07/22 06:19:01;;;;;;;12.95;7.53;;;;;;;24.37;54.67;64528.69;5044864;28;20261;-76
2022/07/22 06:21:28;;;;;;;12.77;6.72;;;;;;;24.30;53.74;64516.69;5034450;28;20210;-77
2022/07/22 06:23:55;;;;;;;19.25;6.90;;;;;;;24.42;54.16;64523.53;5025139;28;20373;-76
2022/07/22 06:26:22;;;;;;;18.08;6.72;;;;;;;24.57;53.69;64550.16;5038322;28;20198;-76
2022/07/22 06:28:49;;;;;;;8.23;6.30;;;;;;;24.59;53.44;64551.75;5042928;28;21692;-76
2022/07/22 06:31:17;;;;;;;12.98;6.38;;;;;;;24.62;52.63;64552.81;5044630;28;20209;-76
2022/07/22 06:33:44;;;;;;;9.23;6.47;;;;;;;24.71;53.33;64557.03;5043379;28;20530;-76
2022/07/22 06:36:11;;;;;;;15.23;7.07;;;;;;;24.63;53.69;64553.31;5045350;28;20198;-76
2022/07/22 06:38:38;;;;;;;12.27;6.72;;;;;;;24.48;54.05;64532.94;5042855;28;20263;-76
2022/07/22 06:41:05;;;;;;;13.23;7.13;;;;;;;24.69;53.50;64560.16;5043844;28;20212;-76
2022/07/22 06:43:32;;;;;;;9.55;6.25;;;;;;;24.84;52.20;64572.72;5040253;28;20228;-76
2022/07/22 06:45:59;;;;;;;12.77;6.35;;;;;;;24.88;51.90;64580.06;5024655;28;20201;-76
2022/07/22 06:48:27;;;;;;;11.32;5.82;;;;;;;25.14;50.94;64602.06;5027290;28;20544;-78
2022/07/22 06:50:54;;;;;;;15.57;6.43;;;;;;;25.42;50.20;64630.38;5044573;28;20473;-77
2022/07/22 06:53:21;;;;;;;9.02;6.30;;;;;;;25.41;50.65;64632.44;5039827;28;20217;-77
2022/07/22 06:55:48;;;;;;;10.23;6.45;;;;;;;25.48;50.42;64642.41;5044637;28;20211;-76
2022/07/22 06:58:15;;;;;;;10.75;6.25;;;;;;;25.70;50.20;64664.91;5033324;28;20221;-76
2022/07/22 07:00:42;;;;;;;7.13;5.82;;;;;;;25.52;48.75;64646.59;5043463;28;20240;-77
2022/07/22 07:03:09;;;;;;;10.10;6.35;;;;;;;25.54;49.04;64645.56;5028680;28;20407;-77
2022/07/22 07:05:37;;;;;;;6.97;5.75;;;;;;;25.76;49.92;64666.00;5029043;28;20252;-76
2022/07/22 07:08:04;;;;;;;15.10;6.78;;;;;;;25.96;49.73;64689.56;5035468;28;20256;-77
2022/07/22 07:10:31;;;;;;;13.88;6.43;;;;;;;26.01;49.08;64695.31;5042386;28;20213;-78
2022/07/22 07:12:58;;;;;;;12.55;6.00;;;;;;;26.14;49.10;64706.34;5024556;28;20218;-77
2022/07/22 07:15:26;;;;;;;8.82;5.70;;;;;;;26.16;45.73;64711.06;5030768;28;20495;-77
2022/07/22 07:17:54;;;;;;;10.65;5.57;;;;;;;26.30;46.50;64727.31;5036549;28;20289;-79
2022/07/22 07:20:21;;;;;;;12.43;6.00;;;;;;;26.39;46.57;64739.38;5029276;28;20276;-77
2022/07/22 07:22:49;;;;;;;8.80;5.40;;;;;;;26.56;47.00;64752.47;5034607;28;20221;-77
2022/07/22 07:25:17;;;;;;;7.60;5.47;;;;;;;26.81;45.76;64783.97;5028013;28;20243;-77
2022/07/22 07:27:43;;;;;;;11.32;5.32;;;;;;;26.75;45.95;64769.81;5043567;28;20272;-77
2022/07/22 07:30:11;;;;;;;7.38;5.63;;;;;;;26.96;44.00;64793.94;5043704;28;20200;-77
2022/07/22 07:32:39;;;;;;;7.07;5.07;;;;;;;26.99;43.64;64797.59;5043741;28;20213;-77
2022/07/22 07:35:07;;;;;;;7.05;4.95;;;;;;;27.28;44.13;64830.13;5041240;28;20197;-77
2022/07/22 07:37:34;;;;;;;9.20;4.82;;;;;;;27.14;42.31;64820.66;5043475;28;20217;-78
2022/07/22 07:40:03;;;;;;;5.13;4.68;;;;;;;27.31;43.06;64830.66;5044466;28;20208;-77
2022/07/22 07:42:30;;;;;;;6.07;4.35;;;;;;;27.38;43.00;64840.09;5044610;28;20417;-77
2022/07/22 07:44:57;;;;;;;8.20;4.28;;;;;;;27.28;42.89;64827.50;5039855;28;20205;-77
2022/07/22 07:47:24;;;;;;;10.52;4.93;;;;;;;27.47;42.25;64850.09;5042237;28;20259;-77
2022/07/22 07:49:51;;;;;;;11.23;4.47;;;;;;;27.74;41.61;64880.50;5043966;28;20251;-76
2022/07/22 07:52:18;;;;;;;10.57;4.72;;;;;;;27.96;41.01;64898.38;5041667;28;20228;-78
2022/07/22 07:54:46;;;;;;;13.88;4.82;;;;;;;27.84;40.29;64888.91;5023277;28;20227;-77
2022/07/22 07:57:14;;;;;;;8.63;4.72;;;;;;;27.84;40.38;64883.66;5037244;28;20232;-77
2022/07/22 07:59:41;;;;;;;5.70;4.90;;;;;;;28.11;40.76;64919.38;5044091;28;20205;-77
2022/07/22 08:02:09;;;;;;;10.32;4.20;;;;;;;28.19;40.51;64925.16;5043912;28;20263;-77
2022/07/22 08:04:36;;;;;;;7.43;4.80;;;;;;;28.35;39.52;64936.72;5047859;28;20197;-78
2022/07/22 08:07:03;;;;;;;10.80;4.32;;;;;;;28.46;39.28;64955.59;5046981;28;20221;-78
2022/07/22 08:09:30;;;;;;;4.47;4.10;;;;;;;28.42;39.26;64947.19;5047028;28;20235;-76
2022/07/22 08:11:57;;;;;;;8.48;4.80;;;;;;;28.36;38.58;64940.91;5042512;28;20239;-77
2022/07/22 08:14:25;;;;;;;7.10;4.43;;;;;;;28.53;38.44;64958.25;5032686;28;20426;-77
2022/07/22 08:16:52;;;;;;;4.95;4.32;;;;;;;28.37;37.95;64946.66;5042170;28;20424;-77
2022/07/22 08:19:19;;;;;;;16.25;4.53;;;;;;;28.44;37.65;64949.28;5045424;28;20222;-77
2022/07/22 08:21:46;;;;;;;6.60;4.50;;;;;;;28.46;37.43;64952.97;5028302;28;20245;-80
2022/07/22 08:24:13;;;;;;;3.67;3.30;;;;;;;28.53;36.79;64960.34;5043573;28;20273;-77
2022/07/22 08:26:40;;;;;;;5.80;3.30;;;;;;;28.29;36.64;64933.03;5046543;28;20205;-76
2022/07/22 08:29:07;;;;;;;6.07;4.07;;;;;;;28.31;36.61;64935.13;5040199;28;20225;-77
2022/07/22 08:31:36;;;;;;;10.20;4.22;;;;;;;28.33;36.98;64937.75;5035915;28;20482;-76
2022/07/22 08:34:03;;;;;;;4.50;4.05;;;;;;;28.35;37.05;64941.94;5029046;28;20198;-77
2022/07/22 08:36:30;;;;;;;5.93;3.67;;;;;;;28.69;36.88;64977.66;5031677;28;20225;-78
2022/07/22 08:38:57;;;;;;;7.25;3.83;;;;;;;28.72;36.51;64978.19;5034206;28;20213;-76
2022/07/22 08:41:25;;;;;;;4.13;3.75;;;;;;;28.90;36.23;64997.09;5026906;28;20206;-77
2022/07/22 08:43:53;;;;;;;5.25;4.07;;;;;;;29.03;35.82;65016.00;5042001;28;20209;-77
2022/07/22 08:46:20;;;;;;;5.15;4.10;;;;;;;29.12;35.29;65020.22;5045107;28;20197;-77
2022/07/22 08:48:48;;;;;;;4.75;3.90;;;;;;;29.30;35.55;65038.63;5035382;28;20235;-77
2022/07/22 08:51:15;;;;;;;10.05;4.53;;;;;;;29.46;34.97;65055.41;5046842;28;20570;-77
2022/07/22 08:53:42;;;;;;;8.90;4.53;;;;;;;29.61;34.69;65070.66;5046864;28;20475;-77
2022/07/22 08:56:09;;;;;;;4.82;3.40;;;;;;;29.49;34.75;65061.72;5041944;28;20502;-76
2022/07/22 08:58:36;;;;;;;4.03;3.72;;;;;;;29.63;34.74;65070.69;5026921;28;20225;-78
2022/07/22 09:01:07;;;;;;;6.90;4.00;;;;;;;29.40;35.13;65049.66;5029890;28;20474;-77
2022/07/22 09:03:34;;;;;;;5.53;3.90;;;;;;;29.61;34.82;65075.91;5046406;28;20289;-78
2022/07/22 09:06:02;;;;;;;5.50;4.78;;;;;;;29.78;34.56;65093.81;5044105;28;20209;-77
2022/07/22 09:08:29;;;;;;;7.45;3.88;;;;;;;30.07;34.56;65124.28;5034319;28;20535;-77
2022/07/22 09:10:56;;;;;;;3.90;3.58;;;;;;;30.25;34.14;65140.63;5048795;28;20210;-76
2022/07/22 09:13:25;;;;;;;4.13;3.83;;;;;;;30.23;32.99;65139.03;5036892;28;20247;-77
2022/07/22 09:15:53;;;;;;;3.38;3.08;;;;;;;29.92;32.52;65105.91;5031092;28;20202;-77
2022/07/22 09:18:20;;;;;;;5.60;4.70;;;;;;;30.14;32.01;65126.41;5028806;28;20217;-77
2022/07/22 09:20:47;;;;;;;3.92;3.63;;;;;;;30.31;32.59;65144.28;5031502;28;20241;-78
2022/07/22 09:23:18;;;;;;;6.03;3.47;;;;;;;30.39;32.47;65160.59;5042957;28;20280;-76
2022/07/22 09:25:45;;;;;;;4.18;3.88;;;;;;;30.46;32.44;65157.41;5045938;28;20201;-77
2022/07/22 09:28:16;;;;;;;5.30;4.00;;;;;;;30.71;32.16;65185.81;5043978;28;20213;-78
2022/07/22 09:30:48;;;;;;;4.28;3.53;;;;;;;30.48;32.28;65162.69;5046964;28;20223;-77
2022/07/22 09:33:16;;;;;;;5.28;3.45;;;;;;;30.29;32.22;65147.97;5047166;28;20252;-78
2022/07/22 09:35:44;;;;;;;4.65;3.70;;;;;;;29.97;33.02;65111.69;5045474;28;20256;-76
2022/07/22 09:38:13;;;;;;;6.90;3.67;;;;;;;29.93;32.92;65104.31;5039564;28;20452;-77
2022/07/22 09:40:43;;;;;;;4.18;3.72;;;;;;;30.14;34.00;65123.75;5044763;28;20256;-78
2022/07/22 09:43:12;;;;;;;5.25;4.43;;;;;;;30.16;33.74;65131.13;5045333;28;20233;-77
2022/07/22 09:45:47;;;;;;;3.78;3.58;;;;;;;30.08;33.40;65120.59;5045385;28;20248;-77
2022/07/22 09:48:17;;;;;;;5.35;3.97;;;;;;;30.05;32.66;65116.94;5037772;28;20533;-77
2022/07/22 09:50:44;;;;;;;12.32;3.85;;;;;;;29.98;32.62;65112.19;5034440;28;20206;-77
2022/07/22 09:53:11;;;;;;;6.72;4.05;;;;;;;30.10;32.99;65119.56;5047638;28;20443;-77
2022/07/22 09:55:40;;;;;;;3.92;3.63;;;;;;;30.43;32.55;65160.06;5044718;28;20498;-77
2022/07/22 09:58:08;;;;;;;5.40;3.75;;;;;;;30.66;33.38;65183.72;5045585;28;20229;-77
2022/07/22 10:00:37;;;;;;;4.07;3.78;;;;;;;30.92;33.94;65216.34;5045392;28;20208;-78
2022/07/22 10:03:06;;;;;;;4.20;3.90;;;;;;;31.29;33.06;65249.47;5047797;28;20268;-77
2022/07/22 10:05:35;;;;;;;4.53;4.13;;;;;;;31.56;32.73;65277.94;5065371;28;20227;-78
2022/07/22 10:08:04;;;;;;;5.32;3.72;;;;;;;31.36;30.44;65257.41;5054922;28;20264;-77
2022/07/22 10:10:32;;;;;;;4.47;4.07;;;;;;;31.39;32.49;65263.19;5045619;28;20275;-76
2022/07/22 10:13:02;;;;;;;4.75;4.45;;;;;;;31.41;31.53;65262.13;5044047;28;20231;-79
2022/07/22 10:15:31;;;;;;;6.57;4.07;;;;;;;31.57;31.97;65278.97;5045542;28;20206;-78
2022/07/22 10:18:00;;;;;;;8.50;4.15;;;;;;;31.30;31.94;65247.91;5044952;28;20218;-77
2022/07/22 10:20:29;;;;;;;7.18;5.15;;;;;;;31.25;31.86;65242.66;5044674;28;20197;-77
2022/07/22 10:22:58;;;;;;;5.32;4.70;;;;;;;31.28;31.41;65246.34;5044383;28;20517;-77
2022/07/22 10:25:27;;;;;;;4.13;3.72;;;;;;;31.34;30.67;65255.28;5045718;28;20197;-78
2022/07/22 10:27:57;;;;;;;4.68;4.28;;;;;;;31.32;31.51;65253.16;5044286;28;20233;-78
2022/07/22 10:30:27;;;;;;;5.15;4.18;;;;;;;31.41;31.43;65259.50;5025436;28;20222;-77
2022/07/22 10:33:09;;;;;;;6.38;4.18;;;;;;;31.46;30.33;65267.41;5029697;28;20237;-77
2022/07/22 10:35:38;;;;;;;4.13;3.72;;;;;;;31.63;31.34;65285.28;5024981;28;20225;-80
2022/07/22 10:38:09;;;;;;;5.50;3.95;;;;;;;31.81;31.29;65301.59;5024815;28;20558;-77
2022/07/22 10:40:51;;;;;;;6.05;4.50;;;;;;;31.88;30.33;65311.09;5024853;28;20249;-78
2022/07/22 10:43:19;;;;;;;4.38;3.83;;;;;;;31.99;30.71;65325.84;5024614;28;20476;-77
2022/07/22 10:45:49;;;;;;;7.28;5.03;;;;;;;31.92;30.75;65312.66;5028653;28;20422;-77
2022/07/22 10:48:26;;;;;;;4.28;3.90;;;;;;;31.92;30.55;65313.19;5044197;28;20246;-77
2022/07/22 10:51:05;;;;;;;5.22;4.60;;;;;;;31.69;30.57;65297.41;5031175;28;20214;-77
2022/07/22 10:53:44;;;;;;;5.57;4.20;;;;;;;31.60;30.74;65282.13;5024860;28;20340;-78
2022/07/22 10:56:20;;;;;;;5.63;4.40;;;;;;;31.50;31.76;65269.50;5024914;28;20198;-77
2022/07/22 10:58:51;;;;;;;5.18;4.03;;;;;;;31.59;32.52;65286.88;5025829;28;20185;-77
2022/07/22 11:01:22;;;;;;;6.63;4.03;;;;;;;31.96;32.50;65322.16;5024712;28;20198;-78
2022/07/22 11:03:50;;;;;;;10.40;4.95;;;;;;;32.17;30.45;65336.34;5024796;28;20217;-77
2022/07/22 11:06:20;;;;;;;4.57;4.15;;;;;;;32.09;31.17;65330.56;5031417;28;20506;-77
2022/07/22 11:08:49;;;;;;;9.80;4.30;;;;;;;32.09;30.57;65339.00;5060993;28;20216;-77
2022/07/22 11:11:17;;;;;;;4.22;3.92;;;;;;;32.25;31.15;65350.56;5054565;28;20470;-76
2022/07/22 11:13:45;;;;;;;4.53;4.22;;;;;;;32.17;30.61;65339.50;5044005;28;20453;-77
2022/07/22 11:16:21;;;;;;;5.60;4.75;;;;;;;32.37;30.91;65360.03;5043699;28;20506;-77
2022/07/22 11:18:49;;;;;;;4.90;4.50;;;;;;;32.39;29.98;65367.94;5043941;28;20185;-77
2022/07/22 11:21:17;;;;;;;5.80;4.55;;;;;;;32.53;30.65;65376.91;5043098;28;20201;-76
2022/07/22 11:23:45;;;;;;;4.88;4.45;;;;;;;32.50;29.64;65379.56;5044018;28;20407;-77
2022/07/22 11:26:16;;;;;;;5.45;4.25;;;;;;;32.52;29.82;65381.66;5040262;28;20194;-77
2022/07/22 11:28:44;;;;;;;4.57;4.05;;;;;;;32.62;28.84;65386.91;5044536;28;20218;-77
2022/07/22 11:31:14;;;;;;;6.43;3.88;;;;;;;32.39;30.06;65362.66;5044726;28;20260;-77
2022/07/22 11:33:43;;;;;;;5.28;4.70;;;;;;;32.38;29.98;65369.00;5043473;28;20613;-78